createdAt,value
2019-04-14T00:00:44.982Z,1018.36
2019-04-14T00:01:45.513Z,1018.29
2019-04-14T00:02:44.963Z,1018.33
2019-04-14T00:03:45.414Z,1018.26
2019-04-14T00:04:44.936Z,1018.32
2019-04-14T00:05:45.128Z,1018.26
2019-04-14T00:06:46.174Z,1018.27
2019-04-14T00:07:45.087Z,1018.23
2019-04-14T00:08:45.907Z,1018.25
2019-04-14T00:09:45.312Z,1018.34
2019-04-14T00:10:44.864Z,1018.26
2019-04-14T00:11:45.899Z,1018.32
2019-04-14T00:12:44.930Z,1018.31
2019-04-14T00:13:45.670Z,1018.29
2019-04-14T00:14:44.826Z,1018.28
2019-04-14T00:15:48.486Z,1018.30
2019-04-14T00:16:44.803Z,1018.27
2019-04-14T00:17:45.639Z,1018.27
2019-04-14T00:18:44.810Z,1018.30
2019-04-14T00:19:45.642Z,1018.24
2019-04-14T00:20:44.848Z,1018.27
2019-04-14T00:21:45.456Z,1018.25
2019-04-14T00:22:44.732Z,1018.27
2019-04-14T00:23:45.627Z,1018.25
2019-04-14T00:24:44.706Z,1018.24
2019-04-14T00:25:45.489Z,1018.27
2019-04-14T00:26:44.686Z,1018.22
2019-04-14T00:27:45.343Z,1018.18
2019-04-14T00:28:44.755Z,1018.21
2019-04-14T00:29:45.775Z,1018.25
2019-04-14T00:30:44.810Z,1018.18
2019-04-14T00:31:45.531Z,1018.20
2019-04-14T00:32:44.609Z,1018.18
2019-04-14T00:33:45.326Z,1018.19
2019-04-14T00:34:44.594Z,1018.18
2019-04-14T00:35:44.916Z,1018.13
2019-04-14T00:36:45.864Z,1018.17
2019-04-14T00:37:44.558Z,1018.14
2019-04-14T00:38:45.602Z,1018.16
2019-04-14T00:39:44.533Z,1018.19
2019-04-14T00:40:45.422Z,1018.18
2019-04-14T00:41:50.275Z,1018.21
2019-04-14T00:42:45.208Z,1018.24
2019-04-14T00:43:44.485Z,1018.22
2019-04-14T00:44:45.290Z,1018.15
2019-04-14T00:45:48.219Z,1018.11
2019-04-14T00:46:45.272Z,1018.11
2019-04-14T00:47:55.737Z,1018.15
2019-04-14T00:48:45.225Z,1018.05
2019-04-14T00:49:44.417Z,1018.05
2019-04-14T00:50:45.255Z,1018.06
2019-04-14T00:51:44.422Z,1018.05
2019-04-14T00:52:44.380Z,1018.03
2019-04-14T00:53:44.636Z,1018.01
2019-04-14T00:54:45.421Z,1018.03
2019-04-14T00:55:44.404Z,1018.03
2019-04-14T00:56:45.443Z,1018.05
2019-04-14T00:57:44.322Z,1018.04
2019-04-14T00:58:45.359Z,1017.94
2019-04-14T00:59:44.304Z,1018.04
2019-04-14T01:00:45.155Z,1017.95
2019-04-14T01:01:44.277Z,1017.95
2019-04-14T01:02:45.038Z,1018.06
2019-04-14T01:03:44.251Z,1017.98
2019-04-14T01:04:44.774Z,1018.00
2019-04-14T01:05:44.227Z,1018.01
2019-04-14T01:06:44.864Z,1017.95
2019-04-14T01:07:45.488Z,1017.93
2019-04-14T01:08:44.511Z,1017.99
2019-04-14T01:09:44.293Z,1017.98
2019-04-14T01:10:45.351Z,1018.00
2019-04-14T01:11:44.386Z,1017.94
2019-04-14T01:12:45.299Z,1017.98
2019-04-14T01:13:44.141Z,1017.99
2019-04-14T01:14:45.195Z,1017.99
2019-04-14T01:15:51.459Z,1017.99
2019-04-14T01:16:45.194Z,1017.97
2019-04-14T01:17:44.086Z,1017.97
2019-04-14T01:18:45.109Z,1017.97
2019-04-14T01:19:44.068Z,1018.00
2019-04-14T01:20:44.973Z,1017.99
2019-04-14T01:21:44.047Z,1018.02
2019-04-14T01:22:44.551Z,1017.98
2019-04-14T01:23:44.020Z,1018.01
2019-04-14T01:24:44.688Z,1018.07
2019-04-14T01:25:45.237Z,1018.11
2019-04-14T01:26:44.259Z,1018.13
2019-04-14T01:27:45.043Z,1018.11
2019-04-14T01:28:44.089Z,1018.10
2019-04-14T01:29:44.863Z,1018.04
2019-04-14T01:30:43.939Z,1018.04
2019-04-14T01:31:44.667Z,1018.08
2019-04-14T01:32:43.918Z,1018.04
2019-04-14T01:33:44.426Z,1018.04
2019-04-14T01:34:43.892Z,1018.06
2019-04-14T01:35:44.350Z,1018.06
2019-04-14T01:36:43.867Z,1018.05
2019-04-14T01:37:44.127Z,1018.09
2019-04-14T01:38:44.912Z,1018.05
2019-04-14T01:39:43.834Z,1018.05
2019-04-14T01:40:44.578Z,1018.02
2019-04-14T01:41:43.808Z,1018.02
2019-04-14T01:42:44.208Z,1018.03
2019-04-14T01:43:43.780Z,1018.05
2019-04-14T01:44:43.895Z,1018.06
2019-04-14T01:45:44.867Z,1018.03
2019-04-14T01:46:43.748Z,1018.07
2019-04-14T01:47:44.536Z,1018.03
2019-04-14T01:48:43.724Z,1018.08
2019-04-14T01:49:44.380Z,1018.03
2019-04-14T01:50:43.707Z,1018.13
2019-04-14T01:51:44.200Z,1018.09
2019-04-14T01:52:43.734Z,1018.08
2019-04-14T01:53:44.609Z,1018.07
2019-04-14T01:54:43.651Z,1018.05
2019-04-14T01:55:44.113Z,1018.06
2019-04-14T01:56:44.914Z,1018.11
2019-04-14T01:57:43.839Z,1018.09
2019-04-14T01:58:44.674Z,1018.10
2019-04-14T01:59:43.865Z,1018.09
2019-04-14T02:00:44.469Z,1018.07
2019-04-14T02:01:44.073Z,1018.15
2019-04-14T02:02:44.326Z,1018.10
2019-04-14T02:03:43.545Z,1018.15
2019-04-14T02:04:44.342Z,1018.12
2019-04-14T02:05:43.521Z,1018.16
2019-04-14T02:06:44.102Z,1018.13
2019-04-14T02:07:43.495Z,1018.16
2019-04-14T02:08:43.703Z,1018.18
2019-04-14T02:09:44.430Z,1018.21
2019-04-14T02:10:43.546Z,1018.25
2019-04-14T02:11:44.515Z,1018.23
2019-04-14T02:12:43.436Z,1018.18
2019-04-14T02:13:44.275Z,1018.19
2019-04-14T02:14:43.409Z,1018.22
2019-04-14T02:15:44.268Z,1018.22
2019-04-14T02:16:50.063Z,1018.18
2019-04-14T02:17:43.826Z,1018.21
2019-04-14T02:18:43.359Z,1018.21
2019-04-14T02:19:43.876Z,1018.17
2019-04-14T02:20:44.599Z,1018.20
2019-04-14T02:21:43.493Z,1018.25
2019-04-14T02:22:44.098Z,1018.25
2019-04-14T02:23:43.402Z,1018.21
2019-04-14T02:24:43.878Z,1018.19
2019-04-14T02:25:43.277Z,1018.25
2019-04-14T02:26:43.835Z,1018.20
2019-04-14T02:27:43.250Z,1018.20
2019-04-14T02:28:43.881Z,1018.14
2019-04-14T02:29:43.230Z,1018.16
2019-04-14T02:30:53.996Z,1018.15
2019-04-14T02:32:11.246Z,1018.18
2019-04-14T02:33:13.855Z,1018.13
2019-04-14T02:34:07.341Z,1018.09
2019-04-14T02:35:13.278Z,1018.11
2019-04-14T02:36:14.741Z,1018.13
2019-04-14T02:37:10.760Z,1018.10
2019-04-14T02:38:18.192Z,1018.06
2019-04-14T02:39:13.492Z,1018.06
2019-04-14T02:40:08.523Z,1018.11
2019-04-14T02:41:18.890Z,1018.07
2019-04-14T02:42:17.395Z,1018.08
2019-04-14T02:43:12.919Z,1018.06
2019-04-14T02:44:15.319Z,1018.11
2019-04-14T02:45:10.424Z,1018.09
2019-04-14T02:47:27.077Z,1018.06
2019-04-14T02:48:29.074Z,1018.10
2019-04-14T02:49:04.558Z,1018.08
2019-04-14T02:50:13.868Z,1018.11
2019-04-14T02:51:13.804Z,1018.09
2019-04-14T02:52:12.049Z,1018.08
2019-04-14T02:55:04.260Z,1018.04
2019-04-14T02:57:15.043Z,1018.09
2019-04-14T02:58:16.116Z,1018.07
2019-04-14T02:59:03.719Z,1018.01
2019-04-14T03:00:11.338Z,1018.14
2019-04-14T03:01:14.777Z,1018.13
2019-04-14T03:03:10.208Z,1018.18
2019-04-14T03:04:09.153Z,1018.10
2019-04-14T03:05:02.497Z,1018.10
2019-04-14T03:06:05.751Z,1018.18
2019-04-14T03:08:06.554Z,1018.15
2019-04-14T03:09:22.137Z,1018.13
2019-04-14T03:10:13.083Z,1018.14
2019-04-14T03:11:25.705Z,1018.11
2019-04-14T03:12:14.466Z,1018.15
2019-04-14T03:13:13.135Z,1018.18
2019-04-14T03:14:08.941Z,1018.15
2019-04-14T03:15:08.060Z,1018.19
2019-04-14T03:16:17.502Z,1018.16
2019-04-14T03:17:21.455Z,1018.17
2019-04-14T03:18:24.039Z,1018.20
2019-04-14T03:19:09.478Z,1018.19
2019-04-14T03:20:13.692Z,1018.17
2019-04-14T03:21:13.797Z,1018.18
2019-04-14T03:22:25.825Z,1018.20
2019-04-14T03:23:19.272Z,1018.16
2019-04-14T03:24:55.366Z,1018.23
2019-04-14T03:26:05.031Z,1018.17
2019-04-14T03:27:09.412Z,1018.17
2019-04-14T03:28:28.387Z,1018.13
2019-04-14T03:29:05.390Z,1018.20
2019-04-14T03:30:17.467Z,1018.11
2019-04-14T03:35:36.009Z,1018.18
2019-04-14T03:38:14.638Z,1018.16
2019-04-14T03:39:12.472Z,1018.13
2019-04-14T03:40:10.002Z,1018.17
2019-04-14T03:42:10.836Z,1018.16
2019-04-14T03:43:17.062Z,1018.17
2019-04-14T03:44:11.757Z,1018.09
2019-04-14T03:45:07.903Z,1018.17
2019-04-14T03:46:18.002Z,1018.14
2019-04-14T03:49:26.524Z,1018.15
2019-04-14T03:50:05.931Z,1018.08
2019-04-14T03:51:15.107Z,1018.10
2019-04-14T03:52:08.609Z,1018.10
2019-04-14T03:54:03.364Z,1018.11
2019-04-14T03:54:56.976Z,1018.09
2019-04-14T03:55:49.112Z,1018.15
2019-04-14T03:56:42.175Z,1018.18
2019-04-14T03:57:43.321Z,1018.14
2019-04-14T03:58:42.169Z,1018.12
2019-04-14T03:59:43.443Z,1018.11
2019-04-14T04:00:42.219Z,1018.09
2019-04-14T04:01:43.424Z,1018.13
2019-04-14T04:02:42.319Z,1018.14
2019-04-14T04:03:42.089Z,1018.15
2019-04-14T04:04:42.377Z,1018.13
2019-04-14T04:05:42.061Z,1018.17
2019-04-14T04:06:42.266Z,1018.15
2019-04-14T04:07:43.158Z,1018.21
2019-04-14T04:08:42.103Z,1018.17
2019-04-14T04:09:43.232Z,1018.17
2019-04-14T04:10:42.242Z,1018.17
2019-04-14T04:11:43.304Z,1018.19
2019-04-14T04:12:42.217Z,1018.15
2019-04-14T04:13:41.975Z,1018.26
2019-04-14T04:14:42.034Z,1018.23
2019-04-14T04:15:43.195Z,1018.22
2019-04-14T04:16:41.981Z,1018.21
2019-04-14T04:17:42.947Z,1018.26
2019-04-14T04:18:50.859Z,1018.28
2019-04-14T04:19:42.641Z,1018.26
2019-04-14T04:20:41.887Z,1018.29
2019-04-14T04:21:42.337Z,1018.29
2019-04-14T04:22:41.858Z,1018.30
2019-04-14T04:23:42.451Z,1018.34
2019-04-14T04:24:41.841Z,1018.32
2019-04-14T04:25:42.206Z,1018.39
2019-04-14T04:26:42.874Z,1018.34
2019-04-14T04:27:41.952Z,1018.36
2019-04-14T04:28:42.851Z,1018.42
2019-04-14T04:29:42.036Z,1018.38
2019-04-14T04:30:42.671Z,1018.37
2019-04-14T04:31:41.794Z,1018.43
2019-04-14T04:32:42.591Z,1018.39
2019-04-14T04:33:41.735Z,1018.46
2019-04-14T04:34:42.334Z,1018.37
2019-04-14T04:35:41.711Z,1018.39
2019-04-14T04:36:42.028Z,1018.41
2019-04-14T04:37:41.684Z,1018.37
2019-04-14T04:38:42.039Z,1018.38
2019-04-14T04:39:41.668Z,1018.33
2019-04-14T04:40:41.905Z,1018.33
2019-04-14T04:41:42.801Z,1018.32
2019-04-14T04:42:41.700Z,1018.33
2019-04-14T04:43:41.618Z,1018.39
2019-04-14T04:44:42.156Z,1018.43
2019-04-14T04:45:41.600Z,1018.40
2019-04-14T04:46:41.632Z,1018.40
2019-04-14T04:47:42.590Z,1018.48
2019-04-14T04:48:41.557Z,1018.48
2019-04-14T04:49:42.616Z,1018.47
2019-04-14T04:50:41.540Z,1018.46
2019-04-14T04:51:42.153Z,1018.51
2019-04-14T04:52:41.514Z,1018.55
2019-04-14T04:53:41.983Z,1018.48
2019-04-14T04:54:42.752Z,1018.55
2019-04-14T04:55:41.717Z,1018.54
2019-04-14T04:56:42.633Z,1018.60
2019-04-14T04:57:41.637Z,1018.56
2019-04-14T04:58:41.440Z,1018.56
2019-04-14T04:59:41.428Z,1018.54
2019-04-14T05:00:41.677Z,1018.53
2019-04-14T05:01:41.407Z,1018.53
2019-04-14T05:02:41.792Z,1018.52
2019-04-14T05:03:41.389Z,1018.58
2019-04-14T05:04:41.627Z,1018.56
2019-04-14T05:05:41.366Z,1018.58
2019-04-14T05:06:41.716Z,1018.62
2019-04-14T05:07:42.439Z,1018.57
2019-04-14T05:08:41.374Z,1018.58
2019-04-14T05:09:41.312Z,1018.59
2019-04-14T05:10:41.433Z,1018.54
2019-04-14T05:11:42.557Z,1018.60
2019-04-14T05:12:41.424Z,1018.59
2019-04-14T05:13:42.362Z,1018.63
2019-04-14T05:14:41.284Z,1018.63
2019-04-14T05:15:42.381Z,1018.60
2019-04-14T05:16:41.864Z,1018.60
2019-04-14T05:17:41.226Z,1018.67
2019-04-14T05:18:41.917Z,1018.64
2019-04-14T05:19:42.052Z,1018.66
2019-04-14T05:20:42.034Z,1018.69
2019-04-14T05:21:41.176Z,1018.75
2019-04-14T05:22:41.863Z,1018.72
2019-04-14T05:23:41.161Z,1018.75
2019-04-14T05:24:41.776Z,1018.72
2019-04-14T05:25:41.137Z,1018.79
2019-04-14T05:26:41.745Z,1018.76
2019-04-14T05:27:41.107Z,1018.77
2019-04-14T05:28:41.651Z,1018.74
2019-04-14T05:29:41.086Z,1018.81
2019-04-14T05:30:41.517Z,1018.78
2019-04-14T05:31:41.067Z,1018.83
2019-04-14T05:32:41.351Z,1018.79
2019-04-14T05:33:41.040Z,1018.89
2019-04-14T05:34:41.224Z,1018.85
2019-04-14T05:35:42.097Z,1018.94
2019-04-14T05:36:41.168Z,1018.90
2019-04-14T05:37:41.921Z,1018.93
2019-04-14T05:38:40.982Z,1018.95
2019-04-14T05:39:41.901Z,1018.99
2019-04-14T05:40:40.964Z,1019.09
2019-04-14T05:41:55.849Z,1018.99
2019-04-14T05:42:40.958Z,1019.03
2019-04-14T05:43:48.784Z,1019.09
2019-04-14T05:44:40.924Z,1019.11
2019-04-14T05:45:41.647Z,1019.07
2019-04-14T05:46:40.919Z,1019.14
2019-04-14T05:47:41.483Z,1019.07
2019-04-14T05:48:40.880Z,1019.09
2019-04-14T05:49:45.506Z,1019.08
2019-04-14T05:50:40.855Z,1019.09
2019-04-14T05:51:41.567Z,1019.13
2019-04-14T05:52:40.833Z,1019.14
2019-04-14T05:53:41.591Z,1019.11
2019-04-14T05:54:40.820Z,1019.10
2019-04-14T05:55:41.633Z,1019.15
2019-04-14T05:56:40.824Z,1019.10
2019-04-14T05:57:41.647Z,1019.07
2019-04-14T05:58:40.775Z,1019.11
2019-04-14T05:59:41.795Z,1019.08
2019-04-14T06:00:40.759Z,1019.12
2019-04-14T06:01:41.956Z,1019.13
2019-04-14T06:02:41.925Z,1019.16
2019-04-14T06:03:40.840Z,1019.19
2019-04-14T06:04:41.714Z,1019.20
2019-04-14T06:05:40.702Z,1019.17
2019-04-14T06:06:40.697Z,1019.18
2019-04-14T06:07:40.688Z,1019.20
2019-04-14T06:08:40.680Z,1019.19
2019-04-14T06:09:40.668Z,1019.20
2019-04-14T06:10:40.653Z,1019.26
2019-04-14T06:11:40.643Z,1019.31
2019-04-14T06:12:40.637Z,1019.24
2019-04-14T06:13:40.626Z,1019.23
2019-04-14T06:14:40.621Z,1019.24
2019-04-14T06:15:40.613Z,1019.29
2019-04-14T06:16:40.599Z,1019.32
2019-04-14T06:17:40.588Z,1019.32
2019-04-14T06:18:40.583Z,1019.32
2019-04-14T06:19:40.780Z,1019.35
2019-04-14T06:20:40.561Z,1019.33
2019-04-14T06:21:40.550Z,1019.35
2019-04-14T06:22:40.538Z,1019.37
2019-04-14T06:23:40.584Z,1019.43
2019-04-14T06:24:40.520Z,1019.51
2019-04-14T06:25:40.510Z,1019.48
2019-04-14T06:26:40.506Z,1019.54
2019-04-14T06:27:40.495Z,1019.55
2019-04-14T06:28:40.509Z,1019.47
2019-04-14T06:29:40.481Z,1019.49
2019-04-14T06:30:40.469Z,1019.48
2019-04-14T06:31:40.460Z,1019.52
2019-04-14T06:32:40.455Z,1019.45
2019-04-14T06:33:40.445Z,1019.48
2019-04-14T06:34:40.435Z,1019.46
2019-04-14T06:35:40.426Z,1019.49
2019-04-14T06:36:40.417Z,1019.44
2019-04-14T06:37:40.411Z,1019.42
2019-04-14T06:38:40.404Z,1019.53
2019-04-14T06:39:40.395Z,1019.53
2019-04-14T06:40:40.390Z,1019.57
2019-04-14T06:41:40.382Z,1019.56
2019-04-14T06:42:40.371Z,1019.70
2019-04-14T06:43:48.661Z,1019.62
2019-04-14T06:44:40.352Z,1019.60
2019-04-14T06:45:40.342Z,1019.67
2019-04-14T06:46:40.341Z,1019.64
2019-04-14T06:47:40.334Z,1019.70
2019-04-14T06:48:40.321Z,1019.64
2019-04-14T06:49:48.937Z,1019.67
2019-04-14T06:50:40.313Z,1019.67
2019-04-14T06:51:40.307Z,1019.77
2019-04-14T06:52:40.300Z,1019.79
2019-04-14T06:53:40.293Z,1019.79
2019-04-14T06:54:40.285Z,1019.81
2019-04-14T06:55:40.279Z,1019.86
2019-04-14T06:56:40.272Z,1019.89
2019-04-14T06:57:40.265Z,1019.93
2019-04-14T06:58:40.266Z,1019.99
2019-04-14T06:59:40.259Z,1019.98
2019-04-14T07:00:40.250Z,1020.04
2019-04-14T07:01:40.252Z,1020.05
2019-04-14T07:02:40.237Z,1020.06
2019-04-14T07:03:40.234Z,1020.02
2019-04-14T07:04:40.234Z,1020.02
2019-04-14T07:05:40.226Z,1020.01
2019-04-14T07:06:40.219Z,1020.10
2019-04-14T07:07:40.215Z,1020.06
2019-04-14T07:08:40.212Z,1019.99
2019-04-14T07:09:40.210Z,1020.15
2019-04-14T07:10:40.208Z,1019.97
2019-04-14T07:11:40.206Z,1019.98
2019-04-14T07:12:42.917Z,1020.08
2019-04-14T07:13:40.221Z,1020.00
2019-04-14T07:14:40.191Z,1020.09
2019-04-14T07:15:40.187Z,1020.27
2019-04-14T07:16:40.180Z,1020.29
2019-04-14T07:17:40.177Z,1020.24
2019-04-14T07:18:40.176Z,1020.27
2019-04-14T07:19:40.178Z,1020.30
2019-04-14T07:20:40.169Z,1020.26
2019-04-14T07:21:40.164Z,1020.29
2019-04-14T07:22:40.166Z,1020.31
2019-04-14T07:23:40.162Z,1020.33
2019-04-14T07:24:40.158Z,1020.29
2019-04-14T07:25:40.155Z,1020.39
2019-04-14T07:26:40.148Z,1020.37
2019-04-14T07:27:40.147Z,1020.41
2019-04-14T07:28:40.178Z,1020.42
2019-04-14T07:29:40.140Z,1020.38
2019-04-14T07:30:40.140Z,1020.49
2019-04-14T07:31:40.137Z,1020.49
2019-04-14T07:32:40.131Z,1020.53
2019-04-14T07:33:40.129Z,1020.53
2019-04-14T07:34:40.121Z,1020.54
2019-04-14T07:35:40.119Z,1020.58
2019-04-14T07:36:40.120Z,1020.59
2019-04-14T07:37:40.116Z,1020.57
2019-04-14T07:38:40.111Z,1020.60
2019-04-14T07:39:40.110Z,1020.61
2019-04-14T07:40:40.110Z,1020.62
2019-04-14T07:41:40.108Z,1020.58
2019-04-14T07:42:40.111Z,1020.63
2019-04-14T07:43:40.107Z,1020.64
2019-04-14T07:44:40.104Z,1020.66
2019-04-14T07:45:40.102Z,1020.66
2019-04-14T07:46:40.095Z,1020.24
2019-04-14T07:47:40.094Z,1020.30
2019-04-14T07:48:40.096Z,1020.19
2019-04-14T07:49:40.094Z,1020.20
2019-04-14T07:50:40.099Z,1020.26
2019-04-14T07:51:40.097Z,1020.27
2019-04-14T07:52:40.095Z,1020.18
2019-04-14T07:53:40.089Z,1020.27
2019-04-14T07:54:41.449Z,1020.27
2019-04-14T07:55:40.097Z,1020.27
2019-04-14T07:56:40.091Z,1020.25
2019-04-14T07:57:40.097Z,1020.25
2019-04-14T07:58:40.085Z,1020.22
2019-04-14T07:59:40.084Z,1020.32
2019-04-14T08:00:40.086Z,1020.33
2019-04-14T08:01:40.084Z,1020.34
2019-04-14T08:02:40.090Z,1020.40
2019-04-14T08:03:40.097Z,1020.37
2019-04-14T08:04:40.091Z,1020.40
2019-04-14T08:05:40.094Z,1020.38
2019-04-14T08:06:40.089Z,1020.39
2019-04-14T08:07:40.091Z,1020.42
2019-04-14T08:08:40.093Z,1020.45
2019-04-14T08:09:40.094Z,1020.51
2019-04-14T08:10:40.091Z,1020.43
2019-04-14T08:11:40.095Z,1020.48
2019-04-14T08:12:40.091Z,1020.52
2019-04-14T08:13:40.090Z,1020.53
2019-04-14T08:14:40.098Z,1020.48
2019-04-14T08:15:40.098Z,1020.54
2019-04-14T08:16:40.099Z,1020.62
2019-04-14T08:17:40.101Z,1020.57
2019-04-14T08:18:40.111Z,1020.49
2019-04-14T08:19:40.100Z,1020.57
2019-04-14T08:20:40.105Z,1020.57
2019-04-14T08:21:40.105Z,1020.65
2019-04-14T08:22:40.115Z,1020.62
2019-04-14T08:23:40.114Z,1020.65
2019-04-14T08:24:40.115Z,1020.62
2019-04-14T08:25:40.113Z,1020.60
2019-04-14T08:26:40.133Z,1020.66
2019-04-14T08:27:40.124Z,1020.65
2019-04-14T08:28:40.122Z,1020.68
2019-04-14T08:29:40.124Z,1020.70
2019-04-14T08:30:40.126Z,1020.65
2019-04-14T08:31:40.126Z,1020.71
2019-04-14T08:32:40.128Z,1020.72
2019-04-14T08:33:40.133Z,1020.76
2019-04-14T08:34:40.139Z,1020.83
2019-04-14T08:35:40.144Z,1020.80
2019-04-14T08:36:40.145Z,1020.77
2019-04-14T08:37:40.150Z,1020.77
2019-04-14T08:38:40.184Z,1020.77
2019-04-14T08:39:40.152Z,1020.82
2019-04-14T08:40:40.162Z,1020.84
2019-04-14T08:41:40.165Z,1020.76
2019-04-14T08:42:40.164Z,1020.85
2019-04-14T08:43:40.168Z,1020.81
2019-04-14T08:44:40.169Z,1020.83
2019-04-14T08:45:40.174Z,1020.79
2019-04-14T08:46:40.183Z,1020.80
2019-04-14T08:47:40.186Z,1020.77
2019-04-14T08:48:40.187Z,1020.82
2019-04-14T08:49:40.191Z,1020.75
2019-04-14T08:50:40.217Z,1020.87
2019-04-14T08:51:40.203Z,1020.78
2019-04-14T08:52:40.205Z,1020.88
2019-04-14T08:53:40.209Z,1020.79
2019-04-14T08:54:40.209Z,1020.80
2019-04-14T08:55:40.214Z,1020.84
2019-04-14T08:56:40.222Z,1020.80
2019-04-14T08:57:40.228Z,1020.82
2019-04-14T08:58:40.225Z,1020.83
2019-04-14T08:59:40.231Z,1020.82
2019-04-14T09:00:40.239Z,1020.87
2019-04-14T09:01:40.242Z,1020.83
2019-04-14T09:02:40.253Z,1020.84
2019-04-14T09:03:40.256Z,1020.94
2019-04-14T09:04:40.265Z,1020.85
2019-04-14T09:05:40.265Z,1020.83
2019-04-14T09:06:40.267Z,1020.90
2019-04-14T09:07:40.271Z,1020.89
2019-04-14T09:08:40.273Z,1020.89
2019-04-14T09:09:40.277Z,1020.93
2019-04-14T09:10:40.288Z,1020.94
2019-04-14T09:11:40.295Z,1021.01
2019-04-14T09:12:40.294Z,1020.93
2019-04-14T09:13:40.298Z,1020.95
2019-04-14T09:14:40.309Z,1021.03
2019-04-14T09:15:40.313Z,1021.06
2019-04-14T09:16:40.324Z,1021.11
2019-04-14T09:17:40.329Z,1021.13
2019-04-14T09:18:40.329Z,1021.02
2019-04-14T09:19:40.336Z,1021.09
2019-04-14T09:20:51.812Z,1021.03
2019-04-14T09:21:40.347Z,1021.08
2019-04-14T09:22:40.359Z,1021.11
2019-04-14T09:23:40.366Z,1021.17
2019-04-14T09:24:40.367Z,1021.16
2019-04-14T09:25:40.373Z,1021.12
2019-04-14T09:26:40.374Z,1021.18
2019-04-14T09:27:40.382Z,1021.14
2019-04-14T09:28:40.391Z,1021.21
2019-04-14T09:29:40.398Z,1021.32
2019-04-14T09:30:40.401Z,1021.28
2019-04-14T09:31:40.407Z,1021.24
2019-04-14T09:32:40.417Z,1021.22
2019-04-14T09:33:40.423Z,1021.35
2019-04-14T09:34:40.434Z,1021.31
2019-04-14T09:35:40.444Z,1021.36
2019-04-14T09:36:40.447Z,1021.37
2019-04-14T09:37:40.457Z,1021.47
2019-04-14T09:38:40.459Z,1021.38
2019-04-14T09:39:40.467Z,1021.47
2019-04-14T09:40:40.471Z,1021.49
2019-04-14T09:41:40.479Z,1021.51
2019-04-14T09:42:40.491Z,1021.52
2019-04-14T09:43:40.497Z,1021.59
2019-04-14T09:44:40.499Z,1021.51
2019-04-14T09:45:40.506Z,1021.50
2019-04-14T09:46:40.518Z,1021.50
2019-04-14T09:47:40.526Z,1021.51
2019-04-14T09:48:42.776Z,1021.48
2019-04-14T09:49:40.556Z,1021.44
2019-04-14T09:50:40.547Z,1021.33
2019-04-14T09:51:40.564Z,1021.11
2019-04-14T09:52:40.558Z,1020.95
2019-04-14T09:53:40.567Z,1020.93
2019-04-14T09:54:40.579Z,1020.90
2019-04-14T09:55:40.588Z,1020.81
2019-04-14T09:56:40.601Z,1020.86
2019-04-14T09:57:40.603Z,1020.82
2019-04-14T09:58:40.607Z,1020.81
2019-04-14T09:59:40.615Z,1020.90
2019-04-14T10:00:40.628Z,1020.90
2019-04-14T10:01:40.636Z,1020.81
2019-04-14T10:02:40.638Z,1020.94
2019-04-14T10:03:40.647Z,1020.87
2019-04-14T10:04:40.652Z,1020.84
2019-04-14T10:05:40.657Z,1021.04
2019-04-14T10:06:41.052Z,1020.83
2019-04-14T10:07:40.679Z,1020.78
2019-04-14T10:08:40.685Z,1020.76
2019-04-14T10:09:40.692Z,1020.63
2019-04-14T10:10:40.696Z,1020.83
2019-04-14T10:11:48.423Z,1020.93
2019-04-14T10:12:40.713Z,1020.68
2019-04-14T10:13:40.722Z,1020.70
2019-04-14T10:14:40.730Z,1020.65
2019-04-14T10:15:40.740Z,1020.62
2019-04-14T10:16:40.740Z,1020.65
2019-04-14T10:17:40.746Z,1020.72
2019-04-14T10:18:40.757Z,1020.60
2019-04-14T10:19:40.763Z,1020.63
2019-04-14T10:20:40.767Z,1020.63
2019-04-14T10:21:40.774Z,1020.51
2019-04-14T10:22:40.773Z,1020.54
2019-04-14T10:23:40.779Z,1020.54
2019-04-14T10:24:40.838Z,1020.51
2019-04-14T10:25:40.790Z,1020.52
2019-04-14T10:26:40.802Z,1020.47
2019-04-14T10:27:40.807Z,1020.54
2019-04-14T10:28:40.813Z,1020.61
2019-04-14T10:29:40.825Z,1020.67
2019-04-14T10:30:40.821Z,1020.56
2019-04-14T10:31:40.832Z,1020.48
2019-04-14T10:32:40.836Z,1020.52
2019-04-14T10:33:40.842Z,1020.57
2019-04-14T10:34:40.850Z,1020.53
2019-04-14T10:35:40.851Z,1020.52
2019-04-14T10:36:40.852Z,1020.50
2019-04-14T10:37:40.863Z,1020.46
2019-04-14T10:38:40.869Z,1020.45
2019-04-14T10:39:40.874Z,1020.44
2019-04-14T10:40:40.880Z,1020.42
2019-04-14T10:41:40.887Z,1020.53
2019-04-14T10:42:40.887Z,1020.42
2019-04-14T10:43:40.909Z,1020.56
2019-04-14T10:44:40.901Z,1020.42
2019-04-14T10:45:40.907Z,1020.94
2019-04-14T10:46:40.915Z,1020.57
2019-04-14T10:47:40.919Z,1020.56
2019-04-14T10:48:40.919Z,1020.59
2019-04-14T10:49:40.925Z,1020.40
2019-04-14T10:50:40.934Z,1020.65
2019-04-14T10:51:40.941Z,1020.56
2019-04-14T10:52:40.939Z,1020.47
2019-04-14T10:53:40.943Z,1020.49
2019-04-14T10:54:40.944Z,1020.40
2019-04-14T10:55:40.946Z,1020.48
2019-04-14T10:56:40.954Z,1020.43
2019-04-14T10:57:40.960Z,1020.43
2019-04-14T10:58:40.970Z,1020.43
2019-04-14T10:59:40.970Z,1020.50
2019-04-14T11:00:40.971Z,1020.63
2019-04-14T11:01:40.976Z,1020.42
2019-04-14T11:02:40.975Z,1020.41
2019-04-14T11:03:40.981Z,1020.41
2019-04-14T11:04:40.986Z,1020.47
2019-04-14T11:05:40.991Z,1020.45
2019-04-14T11:06:40.992Z,1020.47
2019-04-14T11:07:40.995Z,1020.50
2019-04-14T11:08:41.002Z,1020.51
2019-04-14T11:09:41.006Z,1020.49
2019-04-14T11:10:41.013Z,1020.55
2019-04-14T11:11:41.018Z,1020.59
2019-04-14T11:12:41.020Z,1020.56
2019-04-14T11:13:41.027Z,1020.56
2019-04-14T11:14:41.026Z,1020.59
2019-04-14T11:15:41.032Z,1020.54
2019-04-14T11:16:41.036Z,1020.49
2019-04-14T11:17:41.036Z,1020.53
2019-04-14T11:18:41.049Z,1020.54
2019-04-14T11:19:41.048Z,1020.38
2019-04-14T11:20:41.047Z,1020.49
2019-04-14T11:21:42.591Z,1020.35
2019-04-14T11:22:41.061Z,1020.45
2019-04-14T11:23:41.063Z,1020.41
2019-04-14T11:24:41.069Z,1020.36
2019-04-14T11:25:41.076Z,1020.31
2019-04-14T11:26:41.070Z,1020.24
2019-04-14T11:27:41.073Z,1020.24
2019-04-14T11:28:41.076Z,1020.26
2019-04-14T11:29:41.079Z,1020.18
2019-04-14T11:30:41.086Z,1020.00
2019-04-14T11:31:41.093Z,1020.06
2019-04-14T11:32:41.087Z,1020.15
2019-04-14T11:33:41.089Z,1020.06
2019-04-14T11:34:41.087Z,1019.99
2019-04-14T11:35:41.087Z,1020.29
2019-04-14T11:36:41.094Z,1020.27
2019-04-14T11:37:41.164Z,1020.13
2019-04-14T11:38:41.090Z,1020.08
2019-04-14T11:39:41.091Z,1020.02
2019-04-14T11:40:41.093Z,1020.03
2019-04-14T11:41:41.094Z,1019.98
2019-04-14T11:42:51.775Z,1020.00
2019-04-14T11:43:41.097Z,1020.18
2019-04-14T11:44:41.094Z,1020.02
2019-04-14T11:45:41.095Z,1019.97
2019-04-14T11:46:41.087Z,1020.00
2019-04-14T11:47:41.087Z,1019.92
2019-04-14T11:48:41.080Z,1019.95
2019-04-14T11:49:41.080Z,1020.06
2019-04-14T11:50:41.082Z,1019.92
2019-04-14T11:51:41.081Z,1020.02
2019-04-14T11:52:41.075Z,1019.90
2019-04-14T11:53:41.119Z,1020.00
2019-04-14T11:54:41.079Z,1019.91
2019-04-14T11:55:41.070Z,1019.93
2019-04-14T11:56:41.068Z,1019.97
2019-04-14T11:57:41.073Z,1020.00
2019-04-14T11:58:41.071Z,1020.06
2019-04-14T11:59:41.056Z,1020.03
2019-04-14T12:00:41.051Z,1020.00
2019-04-14T12:01:41.046Z,1019.95
2019-04-14T12:02:41.047Z,1019.93
2019-04-14T12:03:41.043Z,1019.91
2019-04-14T12:04:41.043Z,1019.92
2019-04-14T12:05:41.038Z,1019.86
2019-04-14T12:06:41.030Z,1019.85
2019-04-14T12:07:41.032Z,1020.01
2019-04-14T12:08:41.027Z,1019.91
2019-04-14T12:09:41.023Z,1019.90
2019-04-14T12:10:41.016Z,1019.90
2019-04-14T12:11:41.013Z,1019.90
2019-04-14T12:12:41.009Z,1019.96
2019-04-14T12:13:41.002Z,1019.84
2019-04-14T12:14:41.004Z,1019.89
2019-04-14T12:15:40.998Z,1019.78
2019-04-14T12:16:40.994Z,1020.01
2019-04-14T12:17:40.991Z,1019.96
2019-04-14T12:18:40.997Z,1019.95
2019-04-14T12:19:40.980Z,1019.92
2019-04-14T12:20:40.977Z,1019.85
2019-04-14T12:21:40.974Z,1019.88
2019-04-14T12:22:40.975Z,1019.88